Flight Track Log - Related Links

Times and Time Zones

All times are in EDT time to prevent confusion due to time zone crossing. See the UAL4202 flight status page for this flight to view local times or setup timezone preferences in your user account.

Time Position Orientation Groundspeed Altitude Reporting Facility
EDT Latitude Longitude Course Direction KTS MPH feet Rate Location/Type
Thu 09:31:08 PM 38.7494 -90.3236 84° East 148 170 1,400  Level FAA TRACON SMA TRACON (SMA)
Thu 09:31:28 PM 38.7603 -90.3344 322° Northwest 158 182 2,100 1,650 Climbing FAA TRACON SMA TRACON (SMA)
Thu 09:31:48 PM 38.7747 -90.3408 341° North 175 201 2,500 1,317 Climbing FAA TRACON SMA TRACON (SMA)
Thu 09:32:09 PM 38.7958 -90.3472 347° North 198 228 3,000 1,350 Climbing FAA TRACON SMA TRACON (SMA)
Thu 09:32:28 PM 38.8144 -90.3522 348° North 218 251 3,400 1,692 Climbing FAA TRACON SMA TRACON (SMA)
Thu 09:32:48 PM 38.8347 -90.3458 14° North 244 281 4,100 1,902 Climbing FAA TRACON SMA TRACON (SMA)
Thu 09:33:09 PM 38.8539 -90.3178 49° Northeast 277 319 4,700 1,950 Climbing FAA TRACON SMA TRACON (SMA)
Thu 09:33:28 PM 38.8581 -90.2872 80° East 290 334 5,400 1,846 Climbing FAA TRACON SMA TRACON (SMA)
Thu 09:33:48 PM 38.8578 -90.2550 91° East 291 335 5,900 1,950 Climbing FAA TRACON SMA TRACON (SMA)
Thu 09:34:00 PM 38.7610 -89.8181 87° East  Level FlightAware Approximate
Thu 09:34:08 PM 38.8547 -90.2142 95° East 297 342 6,700  Level FAA TRACON SMA TRACON (SMA)
Thu 09:34:28 PM 38.8514 -90.1822 98° East 299 344 7,300 1,950 Climbing FAA TRACON SMA TRACON (SMA)
Thu 09:34:48 PM 38.8489 -90.1494 96° East 300 345 8,000 2,550 Climbing FAA TRACON SMA TRACON (SMA)
Thu 09:35:00 PM 38.7662 -89.6807 87° East  Level FlightAware Approximate
Thu 09:35:08 PM 38.8442 -90.1092 99° East 298 343 9,000  Level FAA TRACON SMA TRACON (SMA)
Thu 09:35:32 PM 38.8406 -90.0697 97° East 291 335 9,700 1,395 Climbing FAA TRACON SMA TRACON (SMA)
Thu 09:35:51 PM 38.8372 -90.0364 97° East 300 345 10,000 667 Climbing FAA TRACON SMA TRACON (SMA)
Thu 09:36:00 PM 38.7837 -89.5452 84° East  Level FlightAware Approximate
Thu 09:36:08 PM 38.8347 -90.0108 97° East 310 357 10,100  Level FAA TRACON SMA TRACON (SMA)
Thu 09:36:29 PM 38.8297 -89.9656 98° East 329 379 10,400 750 Climbing FAA TRACON SMA TRACON (SMA)
Thu 09:36:48 PM 38.8261 -89.9278 97° East 344 396 10,600 615 Climbing FAA TRACON SMA TRACON (SMA)
Thu 09:37:08 PM 38.8231 -89.8883 96° East 357 411 10,800 600 Climbing FAA TRACON SMA TRACON (SMA)
Thu 09:37:28 PM 38.8181 -89.8383 97° East 368 423 11,000 750 Climbing FAA TRACON SMA TRACON (SMA)
Thu 09:37:48 PM 38.8136 -89.7961 98° East 379 436 11,300 900 Climbing FAA TRACON SMA TRACON (SMA)
Thu 09:38:08 PM 38.8094 -89.7542 97° East 386 444 11,600 1,050 Climbing FAA TRACON SMA TRACON (SMA)
Thu 09:38:28 PM 38.8039 -89.7011 98° East 391 450 12,000 1,024 Climbing FAA TRACON SMA TRACON (SMA)
Thu 09:38:49 PM 38.8003 -89.6575 96° East 396 456 12,300 1,024 Climbing FAA TRACON SMA TRACON (SMA)
Thu 09:39:09 PM 38.7950 -89.6139 99° East 402 463 12,700 1,350 Climbing FAA TRACON SMA TRACON (SMA)
Thu 09:39:29 PM 38.7906 -89.5592 96° East 403 464 13,200 1,350 Climbing FAA TRACON SMA TRACON (SMA)
Thu 09:39:49 PM 38.7872 -89.5150 96° East 405 466 13,600 1,200 Climbing FAA TRACON SMA TRACON (SMA)
Thu 09:40:09 PM 38.7883 -89.4692 88° East 413 475 14,000 1,350 Climbing FAA TRACON SMA TRACON (SMA)
Thu 09:40:29 PM 38.7958 -89.4117 80° East 424 488 14,500 1,400 Climbing FAA TRACON SMA TRACON (SMA)
Thu 09:41:09 PM 38.8092 -89.3083 81° East 424 488 15,400 1,200 Climbing FAA TRACON SMA TRACON (SMA)
Thu 09:41:29 PM 38.8158 -89.2625 79° East 424 488 15,700 1,171 Climbing FAA TRACON SMA TRACON (SMA)
Thu 09:41:50 PM 38.8231 -89.2167 79° East 425 489 16,200 1,200 Climbing FAA TRACON SMA TRACON (SMA)
Thu 09:42:09 PM 38.8278 -89.1714 82° East 420 483 16,500 1,231 Climbing FAA TRACON SMA TRACON (SMA)
Thu 09:42:29 PM 38.8347 -89.1142 81° East 420 483 17,000 1,500 Climbing FAA TRACON SMA TRACON (SMA)
Thu 09:42:49 PM 38.8411 -89.0692 80° East 418 481 17,500 698 Climbing FAA TRACON SMA TRACON (SMA)
Thu 09:43:12 PM 38.8411 -89.0692 67° East 418 481 17,500 1,371 Level FAA TRACON SMA TRACON (SMA)
Thu 09:43:59 PM 38.8625 -88.9564 76° East 416 479 19,100 1,376 Climbing Kansas City Center
Thu 09:45:01 PM 38.8800 -88.8364 79° East 416 479 20,000 1,024 Climbing Kansas City Center
Thu 09:46:02 PM 38.8989 -88.6561 82° East 422 486 21,200 1,073 Climbing Kansas City Center
Thu 09:47:04 PM 38.9178 -88.5072 81° East 422 486 22,200 984 Climbing Kansas City Center
Thu 09:48:04 PM 38.9550 -88.3594 72° East 433 498 23,200 1,063 Climbing Kansas City Center
Thu 09:48:23 PM 38.9708 -88.2981 72° East 437 503 23,600 1,037 Climbing Indianapolis Center
Thu 09:49:25 PM 39.0158 -88.1533 68° East 438 504 24,600 976 Climbing Indianapolis Center
Thu 09:50:26 PM 39.0719 -88.0128 63° Northeast 438 504 25,600 934 Climbing Indianapolis Center
Thu 09:51:27 PM 39.1269 -87.8689 64° Northeast 442 509 26,500 836 Climbing Indianapolis Center
Thu 09:52:28 PM 39.1814 -87.7283 63° Northeast 439 505 27,300 787 Climbing Indianapolis Center
Thu 09:53:29 PM 39.2369 -87.5842 64° Northeast 443 510 28,100 836 Climbing Indianapolis Center
Thu 09:54:30 PM 39.2936 -87.4397 63° Northeast 447 514 29,000 829 Climbing Indianapolis Center
Thu 09:55:32 PM 39.3533 -87.2961 62° Northeast 449 517 29,800 780 Climbing Indianapolis Center
Thu 09:56:33 PM 39.4094 -87.1481 64° Northeast 454 522 30,600 738 Climbing Indianapolis Center
Thu 09:57:34 PM 39.4542 -86.9933 69° East 455 524 31,300 738 Climbing Indianapolis Center
Thu 09:58:35 PM 39.5006 -86.8392 69° East 456 525 32,100 738 Climbing Indianapolis Center
Thu 09:59:36 PM 39.5461 -86.6814 69° East 462 532 32,800 683 Climbing Indianapolis Center
Thu 10:00:38 PM 39.5928 -86.5219 69° East 466 536 33,500 683 Climbing Indianapolis Center
Thu 10:01:39 PM 39.6406 -86.3628 69° East 471 542 34,200 639 Climbing Indianapolis Center
Thu 10:02:40 PM 39.6758 -86.1989 74° East 469 540 34,800 393 Climbing Indianapolis Center
Thu 10:03:41 PM 39.7036 -86.0292 78° East 475 547 35,000 98 Climbing Indianapolis Center
Thu 10:04:42 PM 39.7353 -85.8483 77° East 487 560 35,000 -49 Level Indianapolis Center
Thu 10:05:43 PM 39.7806 -85.6725 71° East 509 586 34,900  Descending Indianapolis Center
Thu 10:06:45 PM 39.8364 -85.4989 67° East 516 594 35,000 49 Climbing Indianapolis Center
Thu 10:07:46 PM 39.8911 -85.3219 68° East 521 600 35,000  Level Indianapolis Center
Thu 10:08:47 PM 39.9472 -85.1464 67° East 519 597 35,000  Level Indianapolis Center
Thu 10:09:48 PM 40.0025 -84.9714 68° East 517 595 35,000  Level Indianapolis Center
Thu 10:10:49 PM 40.0650 -84.7692 68° East 512 589 35,000  Level Indianapolis Center
Thu 10:11:50 PM 40.1192 -84.5978 67° East 505 581 35,000  Level Indianapolis Center
Thu 10:12:51 PM 40.1714 -84.4264 68° East 503 579 35,000 -49 Level Indianapolis Center
Thu 10:13:52 PM 40.2219 -84.2608 68° East 488 562 34,900  Descending Indianapolis Center
Thu 10:14:53 PM 40.2722 -84.0961 68° East 482 555 35,000 49 Climbing Indianapolis Center
Thu 10:15:55 PM 40.3367 -83.9367 62° Northeast 488 562 35,000  Level Indianapolis Center
Thu 10:16:56 PM 40.4083 -83.7806 59° Northeast 491 565 35,000  Level Indianapolis Center
Thu 10:17:57 PM 40.4794 -83.6231 59° Northeast 495 570 35,000  Level Indianapolis Center
Thu 10:18:58 PM 40.5506 -83.4706 58° Northeast 486 559 35,000  Level Indianapolis Center
Thu 10:19:59 PM 40.6194 -83.3156 60° Northeast 484 557 35,000  Level Indianapolis Center
Thu 10:20:14 PM 40.6353 -83.2892 52° Northeast 487 560 35,000 -80 Level Cleveland Center
Thu 10:21:14 PM 40.7036 -83.1331 60° Northeast 487 560 34,900  Descending Cleveland Center
Thu 10:22:14 PM 40.7717 -82.9767 60° Northeast 482 555 35,000 50 Climbing Cleveland Center
Thu 10:23:14 PM 40.8458 -82.8064 60° Northeast 487 560 35,000  Level Cleveland Center
Thu 10:24:14 PM 40.9092 -82.6656 59° Northeast 487 560 35,000 -450 Level Cleveland Center
Thu 10:25:14 PM 40.9764 -82.5139 60° Northeast 482 555 34,100 -950 Descending Cleveland Center
Thu 10:26:14 PM 41.0433 -82.3644 59° Northeast 476 548 33,100 -1,000 Descending Cleveland Center
Thu 10:27:14 PM 41.1125 -82.2092 59° Northeast 476 548 32,100 -1,000 Descending Cleveland Center
Thu 10:28:14 PM 41.1792 -82.0536 60° Northeast 482 555 31,100 -1,000 Descending Cleveland Center
Thu 10:29:14 PM 41.2456 -81.9031 60° Northeast 477 549 30,100 -1,000 Descending Cleveland Center
Thu 10:30:14 PM 41.2953 -81.7439 67° East 470 541 29,100 -1,050 Descending Cleveland Center
Thu 10:31:14 PM 41.3219 -81.5756 78° East 453 521 28,000 -950 Descending Cleveland Center
Thu 10:32:14 PM 41.3461 -81.4072 79° East 458 527 27,200 -500 Descending Cleveland Center
Thu 10:33:14 PM 41.3703 -81.2361 79° East 465 535 27,000 -100 Descending Cleveland Center
Thu 10:34:14 PM 41.3961 -81.0675 78° East 470 541 27,000  Level Cleveland Center
Thu 10:35:14 PM 41.4217 -80.8933 79° East 470 541 27,000  Level Cleveland Center
Thu 10:36:14 PM 41.4472 -80.7189 79° East 470 541 27,000  Level Cleveland Center
Thu 10:37:14 PM 41.4722 -80.5444 79° East 470 541 27,000  Level Cleveland Center
Thu 10:38:14 PM 41.4992 -80.3503 79° East 470 541 27,000  Level Cleveland Center
Thu 10:39:14 PM 41.5236 -80.1894 78° East 483 556 27,000  Level Cleveland Center
Thu 10:40:14 PM 41.5481 -80.0144 79° East 483 556 27,000  Level Cleveland Center
Thu 10:41:14 PM 41.5719 -79.8419 79° East 483 556 27,000  Level Cleveland Center
Thu 10:42:14 PM 41.5706 -79.6617 91° East 483 556 27,000  Level Cleveland Center
Thu 10:43:14 PM 41.5586 -79.4869 95° East 478 550 27,000  Level Cleveland Center
Thu 10:44:14 PM 41.5464 -79.3153 95° East 478 550 27,000  Level Cleveland Center
Thu 10:45:14 PM 41.5342 -79.1436 95° East 473 544 27,000  Level Cleveland Center
Thu 10:46:14 PM 41.5214 -78.9692 96° East 473 544 27,000  Level Cleveland Center
Thu 10:47:14 PM 41.5083 -78.7947 96° East 473 544 27,000  Level Cleveland Center
Thu 10:48:14 PM 41.4950 -78.6203 96° East 473 544 27,000  Level Cleveland Center
Thu 10:50:10 PM 41.4692 -78.2828 96° East 455 524 27,000  Level New York Center
Thu 10:51:11 PM 41.4531 -78.1092 97° East 466 536 27,000  Level New York Center
Thu 10:52:11 PM 41.4303 -77.9350 100° East 471 542 27,000  Level New York Center
Thu 10:53:10 PM 41.4017 -77.7494 102° East 471 542 27,000  Level New York Center
Thu 10:54:10 PM 41.3781 -77.5839 101° East 465 535 27,000  Level New York Center
Thu 10:56:12 PM 41.3281 -77.2472 101° East 459 528 27,000  Level New York Center
Thu 10:57:10 PM 41.3019 -77.0761 101° East 459 528 27,000 -403 Level New York Center
Thu 10:58:11 PM 41.2753 -76.9081 102° East 459 528 26,200 -1,100 Descending New York Center
Thu 10:59:10 PM 41.2506 -76.7400 101° East 459 528 24,800 -1,613 Descending New York Center
Thu 11:00:10 PM 41.2267 -76.5889 102° East 459 528 23,000 -1,736 Descending New York Center
Thu 11:01:11 PM 41.2011 -76.4294 102° East 447 514 21,300 -1,672 Descending New York Center
Thu 11:02:12 PM 41.1769 -76.2814 102° East 428 493 19,600 -1,613 Descending New York Center
Thu 11:03:10 PM 41.1531 -76.1222 101° East 404 465 18,100 -1,322 Descending New York Center
Thu 11:04:10 PM 41.1239 -75.9822 105° East 390 449 17,000 -1,525 Descending New York Center
Thu 11:05:12 PM 41.0878 -75.8528 110° East 385 443 15,000 -1,900 Descending New York Center
Thu 11:06:10 PM 41.0572 -75.7350 109° East 379 436 13,200 -1,068 Descending New York Center
Thu 11:07:10 PM 41.0175 -75.5919 110° East 379 436 12,900 -550 Descending New York Center
Thu 11:08:10 PM 40.9806 -75.4683 112° Southeast 379 436 12,100 -1,180 Descending New York Center
Thu 11:09:12 PM 40.9478 -75.3533 111° Southeast 362 417 10,500 -1,500 Descending New York Center
Thu 11:10:10 PM 40.8989 -75.2678 127° Southeast 316 364 9,100 -1,207 Descending New York Center
Thu 11:12:01 PM 40.8833 -75.1000 97° East 313 360 7,100 -702 Descending New York TRACON
Thu 11:13:01 PM 40.8667 -75.0000 102° East 276 318 7,100  Level New York TRACON
Thu 11:14:01 PM 40.8333 -74.9333 123° Southeast 250 288 7,100  Level New York TRACON
Thu 11:15:01 PM 40.7833 -74.8667 135° Southeast 233 268 7,100  Level New York TRACON
Thu 11:16:01 PM 40.7500 -74.7833 118° Southeast 233 268 7,100 -200 Level New York TRACON
Thu 11:17:01 PM 40.7000 -74.7500 153° Southeast 218 251 6,700 -500 Descending New York TRACON
Thu 11:18:01 PM 40.6500 -74.7167 153° Southeast 206 237 6,100 -300 Descending New York TRACON
Thu 11:19:01 PM 40.6000 -74.7000 166° South 206 237 6,100  Level New York TRACON
Thu 11:20:01 PM 40.5833 -74.6167 105° East 258 297 6,100  Level New York TRACON
Thu 11:21:01 PM 40.6000 -74.5333 75° East 274 315 6,100  Level New York TRACON
Thu 11:22:01 PM 40.6667 -74.5500 349° North 256 295 6,100  Level New York TRACON
Thu 11:23:01 PM 40.7333 -74.5833 339° North 270 311 6,100  Level New York TRACON
Thu 11:24:01 PM 40.8000 -74.5833 360° North 266 306 6,100  Level New York TRACON
Thu 11:25:01 PM 40.8833 -74.5833 360° North 269 310 6,100 -50 Level New York TRACON
Thu 11:26:01 PM 40.9500 -74.5833 360° North 267 307 6,000 -450 Descending New York TRACON
Thu 11:27:01 PM 41.0333 -74.5667 North 264 304 5,200 -900 Descending New York TRACON
Thu 11:28:01 PM 41.0667 -74.5000 56° Northeast 264 304 4,200 -600 Descending New York TRACON
Thu 11:29:01 PM 41.1000 -74.4167 62° Northeast 234 269 4,000 -100 Descending New York TRACON
Thu 11:30:01 PM 41.1000 -74.3500 90° East 207 238 4,000  Level New York TRACON
Thu 11:31:01 PM 41.0833 -74.2833 108° East 199 229 4,000  Level New York TRACON
Thu 11:32:01 PM 41.0500 -74.2167 124° Southeast 196 226 4,000  Level New York TRACON
Thu 11:33:01 PM 41.0333 -74.1500 108° East 194 223 4,000  Level New York TRACON
Thu 11:34:01 PM 41.0167 -74.0833 108° East 193 222 4,000 -350 Level New York TRACON
Thu 11:35:01 PM 40.9833 -74.0333 131° Southeast 148 170 3,300 -500 Descending New York TRACON
Thu 11:36:01 PM 40.9500 -74.0167 159° South 137 158 3,000 -150 Descending New York TRACON
Thu 11:37:01 PM 40.9167 -74.0333 201° Southwest 137 158 3,000  Level New York TRACON
Thu 11:38:01 PM 40.8833 -74.0500 201° Southwest 138 159 3,000  Level New York TRACON
Thu 11:39:01 PM 40.8500 -74.0667 201° Southwest 134 154 3,000 -250 Level New York TRACON
Thu 11:40:01 PM 40.8000 -74.0833 194° South 138 159 2,500 -500 Descending New York TRACON

Login

Don't have an account? Register now (free) for customized features, flight alerts, and more!